Time;durP1;ratioP1;P1;durP2;ratioP2;P2;SDS_P1;SDS_P2;PMS_P1;PMS_P2;Temp;Humidity;BMP_temperature;BMP_pressure;BME280_temperature;BME280_humidity;BME280_pressure;Samples;Min_cycle;Max_cycle;Signal;HPM_P1;HPM_P2
2021/06/11 00:02:19;;;;;;;3.28;2.60;;;;;;;19.67;61.25;101701.06;5042600;28;20045;-70
2021/06/11 00:04:44;;;;;;;13.60;2.42;;;;;;;19.65;61.12;101711.78;5042270;28;20041;-70
2021/06/11 00:07:10;;;;;;;5.68;2.33;;;;;;;19.62;61.23;101706.91;5058326;28;20036;-70
2021/06/11 00:09:35;;;;;;;3.05;2.55;;;;;;;19.60;61.37;101708.91;5041393;28;20491;-70
2021/06/11 00:12:02;;;;;;;6.05;2.78;;;;;;;19.56;61.39;101706.88;5043579;28;20106;-70
2021/06/11 00:14:28;;;;;;;4.95;3.00;;;;;;;19.49;61.79;101701.56;5042880;28;20094;-70
2021/06/11 00:16:53;;;;;;;5.43;2.95;;;;;;;19.36;62.79;101706.75;5040065;28;20040;-70
2021/06/11 00:19:19;;;;;;;5.78;3.15;;;;;;;19.28;62.85;101702.44;5032662;28;20037;-70
2021/06/11 00:21:44;;;;;;;4.55;3.17;;;;;;;19.25;62.71;101703.66;5043280;28;20106;-70
2021/06/11 00:24:09;;;;;;;4.78;2.85;;;;;;;19.24;62.94;101704.66;5043946;28;20818;-71
2021/06/11 00:26:35;;;;;;;3.40;2.67;;;;;;;19.23;63.18;101702.22;5039469;28;20128;-70
2021/06/11 00:29:00;;;;;;;4.07;2.97;;;;;;;19.24;63.09;101702.03;5044346;28;20495;-70
2021/06/11 00:31:26;;;;;;;3.90;3.00;;;;;;;19.22;63.00;101700.59;5046135;28;20032;-70
2021/06/11 00:33:51;;;;;;;4.13;2.88;;;;;;;19.19;63.03;101704.44;5045243;28;20143;-70
2021/06/11 00:36:17;;;;;;;6.75;3.30;;;;;;;19.10;63.62;101705.56;5046594;28;20064;-70
2021/06/11 00:38:42;;;;;;;3.88;2.95;;;;;;;18.99;64.13;101706.09;5046757;28;20025;-70
2021/06/11 00:41:08;;;;;;;4.70;3.03;;;;;;;18.96;64.29;101707.25;5067762;28;20040;-70
2021/06/11 00:43:34;;;;;;;5.95;3.55;;;;;;;18.94;64.08;101695.31;5046569;28;20029;-70
2021/06/11 00:45:59;;;;;;;6.18;3.40;;;;;;;18.93;64.13;101691.91;5043501;28;20090;-70
2021/06/11 00:48:25;;;;;;;5.75;3.20;;;;;;;18.94;64.57;101705.84;5047323;28;20137;-70
2021/06/11 00:50:51;;;;;;;8.20;3.33;;;;;;;18.92;64.24;101697.34;5044217;28;20041;-70
2021/06/11 00:53:16;;;;;;;5.13;3.33;;;;;;;18.88;64.36;101707.41;5045306;28;20560;-70
2021/06/11 00:55:45;;;;;;;7.13;3.50;;;;;;;18.85;64.37;101699.88;5044819;28;20052;-70
2021/06/11 00:58:12;;;;;;;4.22;3.47;;;;;;;18.81;64.49;101699.44;5045160;28;20037;-70
2021/06/11 01:00:38;;;;;;;6.45;3.30;;;;;;;18.77;64.69;101700.00;5040989;28;20029;-70
2021/06/11 01:03:04;;;;;;;7.43;3.63;;;;;;;18.76;64.62;101698.38;5044813;28;20314;-70
2021/06/11 01:05:29;;;;;;;6.28;3.55;;;;;;;18.71;64.82;101696.31;5039620;28;20044;-70
2021/06/11 01:07:56;;;;;;;6.35;3.60;;;;;;;18.62;65.29;101695.63;5043835;28;20061;-70
2021/06/11 01:10:22;;;;;;;4.78;3.42;;;;;;;18.49;66.03;101698.13;5046775;28;20492;-70
2021/06/11 01:12:48;;;;;;;6.03;3.83;;;;;;;18.46;65.84;101699.31;5044186;28;20028;-70
2021/06/11 01:15:16;;;;;;;5.13;3.65;;;;;;;18.45;65.79;101700.28;5045696;28;20562;-70
2021/06/11 01:17:42;;;;;;;6.38;3.42;;;;;;;18.44;65.91;101697.84;5046388;28;20020;-70
2021/06/11 01:20:13;;;;;;;5.45;3.22;;;;;;;18.45;66.02;101696.88;5043393;28;20094;-70
2021/06/11 01:23:23;;;;;;;6.55;3.35;;;;;;;18.43;66.44;101693.63;5046311;28;20033;-70
2021/06/11 01:25:59;;;;;;;5.40;3.40;;;;;;;18.40;66.58;101686.94;5034862;28;20049;-70
2021/06/11 01:28:27;;;;;;;6.70;3.38;;;;;;;18.39;66.57;101695.00;5046160;28;20055;-70
2021/06/11 01:30:55;;;;;;;6.35;3.80;;;;;;;18.36;66.59;101700.59;5046073;28;20048;-71
2021/06/11 01:33:26;;;;;;;6.60;4.03;;;;;;;18.26;67.39;101698.28;5042885;28;20083;-70
2021/06/11 01:35:58;;;;;;;5.15;3.85;;;;;;;18.17;67.72;101702.00;5044588;28;20079;-70
2021/06/11 01:38:28;;;;;;;5.50;4.43;;;;;;;18.13;67.59;101703.38;5045044;28;20037;-70
2021/06/11 01:40:54;;;;;;;10.10;4.15;;;;;;;18.12;67.51;101696.50;5045390;28;20045;-70
2021/06/11 01:43:24;;;;;;;8.77;4.63;;;;;;;18.13;67.72;101695.50;5045160;28;20524;-70
2021/06/11 01:45:49;;;;;;;10.10;4.03;;;;;;;18.09;67.65;101695.88;5046396;28;20040;-70
2021/06/11 01:48:17;;;;;;;4.63;3.60;;;;;;;18.06;68.13;101700.66;5043173;28;20417;-70
2021/06/11 01:50:44;;;;;;;8.45;3.70;;;;;;;18.03;68.10;101699.22;5047146;28;20032;-70
2021/06/11 01:53:12;;;;;;;8.90;4.47;;;;;;;18.02;68.17;101702.84;5044662;28;20040;-70
2021/06/11 01:55:39;;;;;;;5.53;3.92;;;;;;;17.99;68.36;101702.38;5062740;28;20091;-70
2021/06/11 01:58:07;;;;;;;8.35;3.88;;;;;;;17.93;68.90;101698.69;5043754;28;20045;-71
2021/06/11 02:00:33;;;;;;;10.57;6.05;;;;;;;17.85;69.24;101698.78;5044139;28;20186;-70
2021/06/11 02:03:00;;;;;;;8.55;4.18;;;;;;;17.81;69.51;101702.75;5046927;28;20135;-70
2021/06/11 02:05:26;;;;;;;5.53;4.00;;;;;;;17.75;69.78;101703.50;5045013;28;20037;-70
2021/06/11 02:07:52;;;;;;;5.97;4.28;;;;;;;17.73;69.83;101703.66;5045529;28;20106;-70
2021/06/11 02:10:20;;;;;;;7.30;4.10;;;;;;;17.73;69.71;101700.22;5043003;28;22033;-70
2021/06/11 02:12:46;;;;;;;7.15;3.88;;;;;;;17.73;69.41;101697.63;5046615;28;20029;-70
2021/06/11 02:15:13;;;;;;;5.50;4.28;;;;;;;17.71;69.64;101697.78;5045411;28;20043;-70
2021/06/11 02:17:41;;;;;;;7.32;4.47;;;;;;;17.65;69.85;101693.25;5044688;28;20485;-70
2021/06/11 02:20:11;;;;;;;7.35;4.82;;;;;;;17.57;70.47;101698.59;5044326;28;20143;-71
2021/06/11 02:22:42;;;;;;;6.63;4.82;;;;;;;17.52;70.62;101697.31;5047089;28;20066;-70
2021/06/11 02:25:09;;;;;;;8.30;5.30;;;;;;;17.50;70.37;101701.13;5045209;28;20049;-70
2021/06/11 02:27:37;;;;;;;9.15;5.38;;;;;;;17.49;70.52;101691.63;5037035;28;20048;-70
2021/06/11 02:30:12;;;;;;;8.98;5.05;;;;;;;17.48;70.71;101696.06;5043039;28;20112;-70
2021/06/11 02:32:39;;;;;;;8.10;5.57;;;;;;;17.47;70.76;101691.81;5045503;28;20030;-70
2021/06/11 02:35:07;;;;;;;11.02;6.10;;;;;;;17.46;71.25;101692.81;5044174;28;20078;-70
2021/06/11 02:37:33;;;;;;;8.38;5.90;;;;;;;17.45;71.43;101690.38;5038214;28;20064;-71
2021/06/11 02:39:59;;;;;;;6.88;5.28;;;;;;;17.40;71.20;101693.50;5044942;28;20052;-70
2021/06/11 02:42:26;;;;;;;8.52;5.55;;;;;;;17.37;71.16;101691.25;5036809;28;20132;-70
2021/06/11 02:44:54;;;;;;;9.30;5.07;;;;;;;17.34;71.30;101691.63;5044629;28;20037;-71
2021/06/11 02:47:30;;;;;;;7.72;5.15;;;;;;;17.31;71.39;101692.78;5044894;28;20029;-70
2021/06/11 02:50:03;;;;;;;9.93;5.28;;;;;;;17.30;71.55;101688.53;5043530;28;20532;-70
2021/06/11 02:52:32;;;;;;;15.13;7.07;;;;;;;17.27;71.68;101693.31;5042070;28;20147;-70
2021/06/11 02:55:01;;;;;;;9.00;5.72;;;;;;;17.26;71.83;101689.06;5046734;28;20029;-70
2021/06/11 02:57:53;;;;;;;14.10;7.25;;;;;;;17.24;72.06;101691.88;5060481;28;20033;-71
2021/06/11 03:00:20;;;;;;;10.07;7.05;;;;;;;17.23;72.02;101695.47;5041387;28;20058;-70
2021/06/11 03:02:53;;;;;;;17.00;6.68;;;;;;;17.23;72.28;101698.09;5044588;28;20036;-70
2021/06/11 03:05:22;;;;;;;12.95;8.65;;;;;;;17.24;72.87;101697.13;5033894;28;20349;-70
2021/06/11 03:07:52;;;;;;;12.05;8.02;;;;;;;17.18;73.27;101695.22;5044262;28;20135;-70
2021/06/11 03:10:21;;;;;;;12.68;7.53;;;;;;;17.13;73.27;101693.09;5042615;28;20587;-70
2021/06/11 03:12:48;;;;;;;10.63;7.50;;;;;;;17.12;73.22;101696.75;5054283;28;20037;-70
2021/06/11 03:15:14;;;;;;;12.40;7.03;;;;;;;17.11;73.28;101699.53;5036463;28;20030;-70
2021/06/11 03:17:54;;;;;;;11.15;7.90;;;;;;;17.07;73.56;101696.44;5041404;28;20020;-70
2021/06/11 03:20:24;;;;;;;14.20;9.15;;;;;;;17.05;73.83;101692.38;5042381;28;20107;-70
2021/06/11 03:23:00;;;;;;;16.48;9.35;;;;;;;16.97;74.31;101695.91;5034225;28;20052;-70
2021/06/11 03:25:30;;;;;;;17.98;10.00;;;;;;;16.95;74.56;101686.56;5041144;28;20033;-70
2021/06/11 03:28:01;;;;;;;11.77;8.38;;;;;;;16.87;74.56;101690.88;5037863;28;20482;-70
2021/06/11 03:30:28;;;;;;;18.42;10.20;;;;;;;16.84;75.09;101703.50;5043114;28;20037;-70
2021/06/11 03:33:00;;;;;;;17.70;11.55;;;;;;;16.79;75.56;101704.00;5044832;28;20036;-70
2021/06/11 03:35:31;;;;;;;13.50;9.60;;;;;;;16.76;75.42;101706.16;5038320;28;20047;-71
2021/06/11 03:37:59;;;;;;;18.95;11.88;;;;;;;16.74;75.43;101707.16;5042735;28;20040;-71
2021/06/11 03:40:29;;;;;;;14.23;10.00;;;;;;;16.72;75.79;101703.06;5059522;28;20033;-71
2021/06/11 03:42:55;;;;;;;15.52;10.48;;;;;;;16.69;75.87;101703.44;5039355;28;20057;-71
2021/06/11 03:45:22;;;;;;;17.75;12.02;;;;;;;16.71;75.96;101706.69;5033304;28;20103;-70
2021/06/11 03:47:49;;;;;;;18.58;10.77;;;;;;;16.68;75.96;101702.59;5058461;28;20501;-71
2021/06/11 03:50:20;;;;;;;15.68;9.57;;;;;;;16.68;75.92;101699.19;5044665;28;20033;-71
2021/06/11 03:52:48;;;;;;;19.30;11.75;;;;;;;16.70;75.59;101698.00;5042680;28;20064;-71
2021/06/11 03:55:26;;;;;;;14.45;9.43;;;;;;;16.75;75.35;101697.50;5060524;28;20029;-71
2021/06/11 03:57:58;;;;;;;14.23;9.43;;;;;;;16.81;75.03;101701.22;5043608;28;20051;-71
2021/06/11 04:00:25;;;;;;;14.13;9.47;;;;;;;16.85;74.54;101686.81;5044591;28;20041;-71
2021/06/11 04:02:50;;;;;;;19.92;12.00;;;;;;;16.86;74.69;101694.50;5041121;28;20199;-71
2021/06/11 04:05:16;;;;;;;14.15;9.63;;;;;;;16.87;74.51;101690.88;5049160;28;20529;-71
2021/06/11 04:07:55;;;;;;;15.45;10.50;;;;;;;16.88;74.64;101692.50;5047515;28;20091;-71
2021/06/11 04:10:28;;;;;;;14.60;9.48;;;;;;;16.89;74.68;101688.88;5037738;28;20062;-71
2021/06/11 04:12:55;;;;;;;16.52;10.57;;;;;;;16.92;74.37;101696.41;5044605;28;20044;-71
2021/06/11 04:15:25;;;;;;;15.23;10.57;;;;;;;16.93;74.18;101692.81;5056460;28;20031;-71
2021/06/11 04:17:54;;;;;;;16.33;9.70;;;;;;;16.96;74.30;101696.88;5047826;28;20470;-71
2021/06/11 04:20:24;;;;;;;15.60;9.75;;;;;;;17.00;74.05;101700.75;5046907;28;20393;-71
2021/06/11 04:22:51;;;;;;;16.88;10.43;;;;;;;17.03;73.95;101699.59;5048063;28;20060;-71
2021/06/11 04:25:18;;;;;;;17.42;10.88;;;;;;;17.04;74.08;101695.97;5065989;28;20043;-71
2021/06/11 04:27:45;;;;;;;14.70;10.38;;;;;;;17.07;73.83;101696.44;5047163;28;20029;-71
2021/06/11 04:30:13;;;;;;;20.95;13.95;;;;;;;17.09;74.02;101693.66;5045178;28;20091;-71
2021/06/11 04:32:38;;;;;;;16.00;10.88;;;;;;;17.09;74.19;101685.78;5034293;28;20573;-70
2021/06/11 04:35:04;;;;;;;15.98;9.77;;;;;;;17.09;74.33;101685.78;5041015;28;20037;-70
2021/06/11 04:37:30;;;;;;;18.05;11.13;;;;;;;17.11;74.36;101683.81;5046652;28;20037;-71
2021/06/11 04:39:57;;;;;;;20.05;12.20;;;;;;;17.12;74.23;101678.41;5041201;28;20128;-71
2021/06/11 04:42:22;;;;;;;18.25;12.48;;;;;;;17.17;74.08;101672.59;5048424;28;20428;-71
2021/06/11 04:44:48;;;;;;;18.20;10.77;;;;;;;17.21;74.22;101668.63;5046064;28;20090;-70
2021/06/11 04:47:13;;;;;;;20.27;13.23;;;;;;;17.28;73.81;101666.13;5045295;28;20367;-70
2021/06/11 04:49:39;;;;;;;19.17;12.68;;;;;;;17.32;73.75;101668.19;5047510;28;20037;-71
2021/06/11 04:52:05;;;;;;;18.88;11.98;;;;;;;17.37;73.72;101659.81;5062816;28;20037;-70
2021/06/11 04:54:30;;;;;;;20.65;12.73;;;;;;;17.43;73.72;101663.50;5047208;28;20037;-71
2021/06/11 04:56:56;;;;;;;17.05;11.43;;;;;;;17.49;73.41;101657.53;5046449;28;20024;-70
2021/06/11 04:59:21;;;;;;;17.50;11.18;;;;;;;17.56;73.31;101662.88;5046751;28;20112;-71
2021/06/11 05:01:47;;;;;;;21.33;13.93;;;;;;;17.67;73.17;101665.88;5063343;28;20426;-71
2021/06/11 05:04:13;;;;;;;21.30;14.20;;;;;;;17.75;73.04;101658.91;5045360;28;20036;-71
2021/06/11 05:06:39;;;;;;;24.95;16.77;;;;;;;17.81;73.24;101660.78;5063529;28;20032;-71
2021/06/11 05:09:04;;;;;;;19.20;13.35;;;;;;;17.90;73.05;101657.09;5047059;28;20029;-70
2021/06/11 05:11:30;;;;;;;22.20;14.02;;;;;;;18.02;72.89;101660.06;5047443;28;20068;-70
2021/06/11 05:13:55;;;;;;;22.63;13.75;;;;;;;18.13;72.48;101656.94;5044155;28;20144;-70
2021/06/11 05:16:21;;;;;;;15.75;10.82;;;;;;;18.25;72.26;101647.59;5041878;28;20040;-71
2021/06/11 05:18:46;;;;;;;19.10;12.52;;;;;;;18.41;71.72;101657.03;5046983;28;20119;-71
2021/06/11 05:21:11;;;;;;;21.98;13.05;;;;;;;18.57;71.62;101652.53;5046496;28;20033;-71
2021/06/11 05:23:37;;;;;;;18.80;11.68;;;;;;;18.75;71.09;101659.97;5044112;28;20075;-71
2021/06/11 05:26:03;;;;;;;24.08;15.00;;;;;;;18.92;70.65;101658.72;5046068;28;20099;-70
2021/06/11 05:28:29;;;;;;;21.60;15.82;;;;;;;19.08;70.14;101667.31;5038940;28;20052;-70
2021/06/11 05:30:55;;;;;;;20.80;13.68;;;;;;;19.20;69.69;101671.88;5046616;28;20417;-71
2021/06/11 05:33:21;;;;;;;21.23;14.13;;;;;;;19.41;69.02;101673.59;5046437;28;20033;-70
2021/06/11 05:35:48;;;;;;;21.83;14.77;;;;;;;19.60;68.84;101679.97;5040480;28;20447;-71
2021/06/11 05:38:14;;;;;;;19.40;14.13;;;;;;;19.75;68.13;101673.81;5043278;28;20032;-70
2021/06/11 05:40:40;;;;;;;24.30;15.98;;;;;;;19.96;67.73;101675.53;5037857;28;20090;-70
2021/06/11 05:43:06;;;;;;;21.80;15.48;;;;;;;20.07;67.18;101671.53;5040208;28;20033;-70
2021/06/11 05:45:32;;;;;;;20.90;12.98;;;;;;;20.33;66.53;101681.31;5043206;28;20073;-71
2021/06/11 05:48:00;;;;;;;20.83;14.32;;;;;;;20.54;66.04;101672.44;5040821;28;20536;-71
2021/06/11 05:50:26;;;;;;;20.85;14.50;;;;;;;20.78;65.58;101673.69;5038258;28;20119;-71
2021/06/11 05:52:53;;;;;;;21.95;14.05;;;;;;;20.93;64.65;101666.38;5040635;28;20048;-71
2021/06/11 05:55:18;;;;;;;15.18;10.88;;;;;;;21.29;63.95;101669.59;5045785;28;20026;-71
2021/06/11 05:57:43;;;;;;;17.33;10.85;;;;;;;21.59;63.13;101669.94;5044626;28;20450;-71
2021/06/11 06:00:09;;;;;;;22.08;14.35;;;;;;;21.85;62.81;101668.19;5040182;28;20056;-71
2021/06/11 06:02:35;;;;;;;20.75;13.85;;;;;;;21.96;61.25;101670.19;5040548;28;20482;-71
2021/06/11 06:05:02;;;;;;;20.70;12.88;;;;;;;22.30;60.66;101668.19;5048994;28;20068;-71
2021/06/11 06:07:27;;;;;;;20.70;13.80;;;;;;;22.55;59.80;101676.16;5045439;28;20040;-71
2021/06/11 06:09:54;;;;;;;18.30;13.27;;;;;;;22.77;58.79;101678.44;5044743;28;20749;-71
2021/06/11 06:12:19;;;;;;;19.98;12.65;;;;;;;22.88;58.73;101672.44;5041118;28;20063;-71
2021/06/11 06:14:44;;;;;;;20.38;14.20;;;;;;;23.06;57.93;101677.00;5039912;28;20112;-71
2021/06/11 06:17:10;;;;;;;25.40;14.93;;;;;;;23.07;57.71;101676.75;5046546;28;20397;-71
2021/06/11 06:19:37;;;;;;;20.52;12.48;;;;;;;23.31;56.84;101685.69;5041218;28;20020;-72
2021/06/11 06:22:03;;;;;;;19.85;13.05;;;;;;;23.48;56.42;101688.56;5039055;28;20544;-71
2021/06/11 06:24:28;;;;;;;18.20;13.20;;;;;;;23.69;56.31;101689.94;5059649;28;20029;-71
2021/06/11 06:26:53;;;;;;;21.88;13.88;;;;;;;23.83;55.27;101693.28;5040923;28;20535;-72
2021/06/11 06:29:19;;;;;;;23.95;15.55;;;;;;;23.80;55.05;101691.06;5043360;28;20037;-71
2021/06/11 06:31:46;;;;;;;18.90;13.00;;;;;;;24.10;54.80;101690.28;5058513;28;20056;-71
2021/06/11 06:34:11;;;;;;;16.20;10.27;;;;;;;24.31;54.43;101699.56;5040262;28;20087;-72
2021/06/11 06:36:37;;;;;;;22.63;12.93;;;;;;;24.48;54.00;101691.75;5045288;28;20033;-72
2021/06/11 06:39:06;;;;;;;17.42;12.52;;;;;;;24.60;53.81;101690.00;5044507;28;20028;-71
2021/06/11 06:41:32;;;;;;;16.08;11.82;;;;;;;24.84;51.56;101682.84;5060959;28;20716;-71
2021/06/11 06:43:58;;;;;;;17.45;11.60;;;;;;;24.94;51.70;101689.41;5061265;28;20599;-72
2021/06/11 06:46:23;;;;;;;20.50;12.95;;;;;;;25.13;51.13;101690.09;5044062;28;20058;-72
2021/06/11 06:48:50;;;;;;;13.70;9.73;;;;;;;25.25;51.02;101694.41;5047487;28;20089;-71
2021/06/11 06:51:17;;;;;;;16.08;12.13;;;;;;;25.47;50.58;101688.50;5036644;28;20040;-72
2021/06/11 06:53:42;;;;;;;20.63;12.35;;;;;;;25.50;50.03;101693.31;5040671;28;20036;-72
2021/06/11 06:56:08;;;;;;;22.45;13.40;;;;;;;25.64;49.18;101680.59;5046443;28;20044;-72
2021/06/11 06:58:35;;;;;;;20.48;13.80;;;;;;;25.78;49.67;101686.44;5041438;28;20025;-72
2021/06/11 07:01:01;;;;;;;19.23;11.63;;;;;;;25.80;49.87;101690.44;5057147;28;20033;-72
2021/06/11 07:03:26;;;;;;;18.35;11.50;;;;;;;26.12;48.98;101681.25;5041487;28;20547;-72
2021/06/11 07:05:52;;;;;;;14.85;9.88;;;;;;;26.47;47.82;101682.91;5036218;28;20487;-72
2021/06/11 07:08:17;;;;;;;16.77;11.57;;;;;;;26.38;48.00;101669.19;5046172;28;20040;-72
2021/06/11 07:10:42;;;;;;;17.95;12.02;;;;;;;26.46;47.90;101673.31;5038843;28;20571;-72
2021/06/11 07:13:14;;;;;;;15.85;10.65;;;;;;;26.75;46.32;101674.84;5044558;28;20669;-72
2021/06/11 07:15:40;;;;;;;16.20;10.53;;;;;;;27.14;46.31;101680.19;5041076;28;20039;-72
2021/06/11 07:18:05;;;;;;;13.80;11.13;;;;;;;27.23;45.83;101679.75;5038717;28;20024;-72
2021/06/11 07:20:31;;;;;;;15.07;10.38;;;;;;;27.30;45.66;101678.56;5061167;28;20065;-73
2021/06/11 07:22:57;;;;;;;16.73;9.50;;;;;;;27.54;46.59;101678.31;5042424;28;20036;-73
2021/06/11 07:25:23;;;;;;;15.20;8.70;;;;;;;27.62;45.39;101677.06;5045846;28;20543;-72
2021/06/11 07:27:48;;;;;;;12.55;9.02;;;;;;;27.98;44.11;101683.59;5044539;28;20033;-72
2021/06/11 07:30:17;;;;;;;10.15;7.55;;;;;;;28.27;43.78;101686.78;5046081;28;20755;-72
2021/06/11 07:32:43;;;;;;;13.27;9.10;;;;;;;28.15;43.79;101684.28;5041923;28;20029;-72
2021/06/11 07:35:13;;;;;;;12.73;7.47;;;;;;;28.34;43.50;101687.38;5057707;28;20393;-72
2021/06/11 07:37:39;;;;;;;16.23;10.55;;;;;;;28.25;43.69;101686.25;5059266;28;20035;-72
2021/06/11 07:40:09;;;;;;;14.32;8.95;;;;;;;27.84;43.96;101687.69;5061641;28;20037;-72
2021/06/11 07:42:35;;;;;;;15.75;9.90;;;;;;;28.00;43.32;101688.69;5045851;28;20528;-72
2021/06/11 07:45:00;;;;;;;16.95;9.30;;;;;;;28.20;42.06;101688.88;5050571;28;20033;-73
2021/06/11 07:47:27;;;;;;;11.27;8.57;;;;;;;28.48;42.04;101694.97;5045957;28;20449;-72
2021/06/11 07:49:52;;;;;;;14.80;9.02;;;;;;;28.60;42.18;101689.50;5046749;28;20044;-73
2021/06/11 07:52:18;;;;;;;17.13;8.75;;;;;;;28.73;41.69;101700.53;5025685;28;20028;-73
2021/06/11 07:54:43;;;;;;;12.02;7.75;;;;;;;28.56;42.99;101710.53;5042935;28;20037;-73
2021/06/11 07:57:09;;;;;;;12.38;8.57;;;;;;;28.72;41.62;101706.09;5046502;28;20051;-72
2021/06/11 07:59:35;;;;;;;12.23;8.43;;;;;;;28.81;41.53;101704.56;5048564;28;20122;-73
2021/06/11 08:02:01;;;;;;;12.15;8.40;;;;;;;28.71;42.01;101712.53;5042607;28;20619;-73
2021/06/11 08:04:26;;;;;;;11.63;8.23;;;;;;;28.72;41.19;101706.09;5049159;28;20485;-73
2021/06/11 08:06:52;;;;;;;14.95;7.72;;;;;;;28.89;41.41;101701.41;5046799;28;20033;-72
2021/06/11 08:09:17;;;;;;;16.50;10.52;;;;;;;28.90;40.64;101713.69;5048574;28;20052;-73
2021/06/11 08:11:43;;;;;;;12.43;9.27;;;;;;;28.87;40.50;101708.88;5045908;28;20618;-73
2021/06/11 08:14:08;;;;;;;14.02;8.57;;;;;;;28.95;40.78;101707.59;5029667;28;20075;-73
2021/06/11 08:16:34;;;;;;;9.60;7.20;;;;;;;28.92;40.81;101711.56;5062047;28;20064;-73
2021/06/11 08:18:59;;;;;;;10.68;7.25;;;;;;;29.06;39.91;101713.78;5037828;28;20027;-73
2021/06/11 08:21:25;;;;;;;9.60;5.88;;;;;;;29.38;39.24;101712.91;5049879;28;20041;-73
2021/06/11 08:23:50;;;;;;;11.93;7.90;;;;;;;29.41;38.67;101717.75;5038930;28;20498;-73
2021/06/11 08:26:16;;;;;;;11.00;6.95;;;;;;;29.72;39.03;101710.63;5064361;28;20074;-73
2021/06/11 08:28:42;;;;;;;11.93;6.28;;;;;;;30.02;38.10;101709.13;5040894;28;20451;-73
2021/06/11 08:31:07;;;;;;;9.23;6.15;;;;;;;30.17;38.44;101711.00;5033191;28;20112;-73
2021/06/11 08:33:33;;;;;;;13.85;8.80;;;;;;;30.07;37.70;101717.94;5042475;28;20453;-73
2021/06/11 08:35:59;;;;;;;10.07;6.68;;;;;;;30.00;37.47;101712.06;5045324;28;20071;-73
2021/06/11 08:38:24;;;;;;;10.52;5.80;;;;;;;29.90;38.41;101706.69;5046754;28;20040;-73
2021/06/11 08:40:50;;;;;;;9.50;5.82;;;;;;;30.13;37.81;101708.06;5046925;28;20037;-73
2021/06/11 08:43:17;;;;;;;10.07;6.32;;;;;;;29.42;39.13;101706.81;5060967;28;20358;-73
2021/06/11 08:45:44;;;;;;;9.77;5.45;;;;;;;28.98;40.25;101711.63;5048033;28;20044;-73
2021/06/11 08:48:10;;;;;;;10.40;6.65;;;;;;;29.28;39.46;101714.47;5045061;28;20084;-72
2021/06/11 08:50:36;;;;;;;13.00;7.70;;;;;;;29.45;38.96;101714.28;5043510;28;20064;-73
2021/06/11 08:53:04;;;;;;;9.95;5.72;;;;;;;29.67;39.09;101711.44;5060785;28;20504;-73
2021/06/11 08:55:31;;;;;;;11.77;6.05;;;;;;;29.70;38.60;101715.44;5046030;28;20043;-74
2021/06/11 08:57:56;;;;;;;8.35;5.47;;;;;;;29.98;38.30;101706.16;5059844;28;20068;-73
2021/06/11 09:00:22;;;;;;;11.65;7.18;;;;;;;29.90;37.71;101714.72;5037675;28;20131;-73
2021/06/11 09:03:11;;;;;;;8.45;4.60;;;;;;;30.33;38.46;101711.84;5051226;28;20032;-73
2021/06/11 09:05:39;;;;;;;14.70;7.28;;;;;;;30.05;38.07;101709.41;5064283;28;20456;-73
2021/06/11 09:08:33;;;;;;;8.65;5.82;;;;;;;29.79;38.13;101711.22;5048614;28;20474;-73
2021/06/11 09:11:11;;;;;;;10.38;5.88;;;;;;;29.69;38.95;101713.84;5045455;28;20052;-73
2021/06/11 09:13:40;;;;;;;11.85;7.28;;;;;;;29.65;38.53;101716.22;5038013;28;20103;-73
2021/06/11 09:16:20;;;;;;;7.90;5.80;;;;;;;29.10;40.72;101721.03;5043306;28;20118;-73
2021/06/11 09:18:47;;;;;;;13.23;5.93;;;;;;;29.59;38.60;101714.63;5046629;28;20021;-73
2021/06/11 09:21:42;;;;;;;11.85;6.55;;;;;;;30.06;37.76;101711.00;5048632;28;20147;-73
2021/06/11 09:24:21;;;;;;;11.18;7.22;;;;;;;30.08;37.96;101708.88;5043327;28;20037;-73
2021/06/11 09:27:02;;;;;;;15.07;8.10;;;;;;;29.79;36.83;101715.75;5041358;28;20087;-73
2021/06/11 09:29:36;;;;;;;8.50;5.65;;;;;;;29.79;37.80;101710.41;5038506;28;20037;-73
2021/06/11 09:32:23;;;;;;;15.48;8.32;;;;;;;29.28;39.03;101711.00;5063032;28;20047;-73
2021/06/11 09:35:08;;;;;;;13.48;7.65;;;;;;;28.72;40.04;101709.56;5047722;28;20028;-73
2021/06/11 09:37:38;;;;;;;9.52;4.82;;;;;;;28.46;41.58;101716.56;5045463;28;20025;-73
2021/06/11 09:40:07;;;;;;;10.40;7.20;;;;;;;28.15;42.29;101721.59;5047849;28;20359;-73
2021/06/11 09:42:36;;;;;;;7.25;5.05;;;;;;;28.59;42.19;101725.22;5046749;28;20072;-73
2021/06/11 09:45:10;;;;;;;9.73;7.15;;;;;;;28.90;40.13;101713.69;5046824;28;20064;-73
2021/06/11 09:47:38;;;;;;;12.00;6.47;;;;;;;28.69;40.25;101715.44;5044955;28;20061;-73
2021/06/11 09:50:10;;;;;;;11.45;7.40;;;;;;;28.66;39.61;101713.28;5060171;28;20112;-73
2021/06/11 09:52:58;;;;;;;12.07;6.60;;;;;;;29.14;39.66;101705.34;5056858;28;20474;-73
2021/06/11 09:55:24;;;;;;;8.80;5.18;;;;;;;29.55;38.43;101700.16;5060269;28;20070;-73
2021/06/11 09:58:24;;;;;;;10.57;6.00;;;;;;;29.78;39.01;101703.44;5060831;28;20071;-72
2021/06/11 10:00:53;;;;;;;15.10;6.85;;;;;;;29.49;39.46;101701.22;5042090;28;20396;-76
2021/06/11 10:03:26;;;;;;;10.15;4.95;;;;;;;29.87;38.64;101700.00;5036147;28;20033;-73
2021/06/11 10:05:54;;;;;;;11.55;6.88;;;;;;;29.90;39.62;101704.03;5029150;28;20048;-73
2021/06/11 10:08:21;;;;;;;12.23;6.85;;;;;;;29.99;39.78;101697.09;5047001;28;20033;-74
2021/06/11 10:10:48;;;;;;;10.63;5.93;;;;;;;30.39;39.01;101706.22;5038637;28;20036;-73
2021/06/11 10:13:16;;;;;;;9.57;5.90;;;;;;;30.56;36.43;101699.81;5048478;28;20032;-73
2021/06/11 10:15:44;;;;;;;9.05;5.80;;;;;;;30.51;37.53;101695.25;5035100;28;20513;-73
2021/06/11 10:18:10;;;;;;;9.18;5.30;;;;;;;30.40;36.71;101691.81;5041911;28;20056;-73
2021/06/11 10:20:36;;;;;;;9.45;5.82;;;;;;;30.06;38.26;101688.81;5055748;28;20033;-73
2021/06/11 10:23:05;;;;;;;8.60;5.88;;;;;;;29.63;37.83;101685.47;5041316;28;20389;-73
2021/06/11 10:25:30;;;;;;;8.27;4.82;;;;;;;29.19;40.17;101700.00;5043780;28;20568;-73
2021/06/11 10:27:56;;;;;;;6.68;4.55;;;;;;;29.53;40.07;101696.94;5043792;28;20033;-73
2021/06/11 10:30:25;;;;;;;6.80;4.18;;;;;;;29.13;41.06;101693.03;5065819;28;20580;-73
2021/06/11 10:32:51;;;;;;;7.22;4.65;;;;;;;29.66;39.83;101695.66;5038019;28;20037;-73
2021/06/11 10:35:46;;;;;;;8.85;4.43;;;;;;;30.05;39.17;101685.34;5058347;28;20044;-73
2021/06/11 10:38:30;;;;;;;10.95;5.53;;;;;;;29.74;39.76;101676.44;5038917;28;20025;-73
2021/06/11 10:40:58;;;;;;;5.90;4.03;;;;;;;30.03;38.29;101673.31;5032024;28;20472;-73
2021/06/11 10:43:27;;;;;;;7.63;4.90;;;;;;;29.66;37.70;101685.75;5042723;28;20270;-73
2021/06/11 10:45:55;;;;;;;10.73;4.72;;;;;;;29.40;39.48;101686.75;5044592;28;20033;-73
2021/06/11 10:48:21;;;;;;;8.68;4.63;;;;;;;29.37;38.29;101679.28;5035854;28;20040;-73
2021/06/11 10:50:47;;;;;;;8.18;4.05;;;;;;;29.46;38.68;101683.03;5057761;28;20043;-73
2021/06/11 10:53:14;;;;;;;7.22;3.60;;;;;;;29.78;38.02;101674.88;5031932;28;20045;-73
2021/06/11 10:55:55;;;;;;;7.47;4.07;;;;;;;29.82;37.78;101667.94;5055060;28;20077;-73
2021/06/11 10:58:22;;;;;;;7.72;3.83;;;;;;;29.84;37.85;101668.47;5040133;28;20029;-73
2021/06/11 11:00:47;;;;;;;7.78;3.50;;;;;;;29.81;38.07;101660.97;5041374;28;20049;-73
2021/06/11 11:03:30;;;;;;;6.28;3.70;;;;;;;29.56;36.67;101674.25;5044523;28;20043;-73
2021/06/11 11:05:56;;;;;;;4.82;3.30;;;;;;;29.00;37.74;101662.25;5059893;28;20048;-73
2021/06/11 11:08:21;;;;;;;4.47;2.90;;;;;;;29.08;37.74;101666.28;5046018;28;20565;-73
2021/06/11 11:10:51;;;;;;;5.45;3.13;;;;;;;29.42;37.82;101653.41;5057940;28;20482;-73
2021/06/11 11:13:25;;;;;;;5.03;2.53;;;;;;;29.68;38.00;101656.91;5039890;28;20041;-73
2021/06/11 11:15:57;;;;;;;5.72;3.15;;;;;;;30.01;38.19;101659.41;5045735;28;20029;-73
2021/06/11 11:18:31;;;;;;;5.00;3.00;;;;;;;30.04;37.32;101659.66;5039583;28;20492;-73
2021/06/11 11:20:59;;;;;;;5.13;3.20;;;;;;;29.64;37.31;101661.19;5035241;28;20033;-73
2021/06/11 11:23:27;;;;;;;7.13;2.70;;;;;;;29.37;38.51;101664.03;5046179;28;20036;-73